sensor_id;sensor_type;location;lat;lon;timestamp;P1;durP1;ratioP1;P2;durP2;ratioP2
16179;SDS011;8196;49.428;10.906;2023-06-14T00:02:01;4.80;;;3.97;;
16179;SDS011;8196;49.428;10.906;2023-06-14T00:04:28;4.38;;;3.90;;
16179;SDS011;8196;49.428;10.906;2023-06-14T00:06:55;4.20;;;3.78;;
16179;SDS011;8196;49.428;10.906;2023-06-14T00:09:23;6.47;;;4.20;;
16179;SDS011;8196;49.428;10.906;2023-06-14T00:11:49;7.18;;;3.70;;
16179;SDS011;8196;49.428;10.906;2023-06-14T00:14:16;4.22;;;3.83;;
16179;SDS011;8196;49.428;10.906;2023-06-14T00:16:43;5.75;;;4.07;;
16179;SDS011;8196;49.428;10.906;2023-06-14T00:19:10;6.00;;;4.28;;
16179;SDS011;8196;49.428;10.906;2023-06-14T00:21:37;4.40;;;3.80;;
16179;SDS011;8196;49.428;10.906;2023-06-14T00:24:04;5.67;;;4.10;;
16179;SDS011;8196;49.428;10.906;2023-06-14T00:26:31;4.30;;;3.90;;
16179;SDS011;8196;49.428;10.906;2023-06-14T00:28:58;4.68;;;3.58;;
16179;SDS011;8196;49.428;10.906;2023-06-14T00:31:25;5.37;;;4.13;;
16179;SDS011;8196;49.428;10.906;2023-06-14T00:33:52;5.80;;;4.25;;
16179;SDS011;8196;49.428;10.906;2023-06-14T00:36:19;4.72;;;4.28;;
16179;SDS011;8196;49.428;10.906;2023-06-14T00:38:46;7.03;;;4.20;;
16179;SDS011;8196;49.428;10.906;2023-06-14T00:41:13;5.25;;;4.40;;
16179;SDS011;8196;49.428;10.906;2023-06-14T00:43:39;6.05;;;4.55;;
16179;SDS011;8196;49.428;10.906;2023-06-14T00:46:06;6.43;;;4.40;;
16179;SDS011;8196;49.428;10.906;2023-06-14T00:48:33;4.68;;;4.22;;
16179;SDS011;8196;49.428;10.906;2023-06-14T00:51:02;4.55;;;4.10;;
16179;SDS011;8196;49.428;10.906;2023-06-14T00:53:30;6.00;;;4.20;;
16179;SDS011;8196;49.428;10.906;2023-06-14T00:56:00;5.25;;;4.75;;
16179;SDS011;8196;49.428;10.906;2023-06-14T00:58:27;4.63;;;4.20;;
16179;SDS011;8196;49.428;10.906;2023-06-14T01:00:54;5.18;;;4.55;;
16179;SDS011;8196;49.428;10.906;2023-06-14T01:03:22;4.97;;;4.50;;
16179;SDS011;8196;49.428;10.906;2023-06-14T01:05:51;5.07;;;4.57;;
16179;SDS011;8196;49.428;10.906;2023-06-14T01:08:31;5.30;;;4.80;;
16179;SDS011;8196;49.428;10.906;2023-06-14T01:11:07;5.90;;;4.70;;
16179;SDS011;8196;49.428;10.906;2023-06-14T01:13:36;6.07;;;4.80;;
16179;SDS011;8196;49.428;10.906;2023-06-14T01:16:05;5.20;;;4.70;;
16179;SDS011;8196;49.428;10.906;2023-06-14T01:18:33;7.13;;;5.00;;
16179;SDS011;8196;49.428;10.906;2023-06-14T01:21:01;5.88;;;4.78;;
16179;SDS011;8196;49.428;10.906;2023-06-14T01:23:32;7.93;;;4.90;;
16179;SDS011;8196;49.428;10.906;2023-06-14T01:26:00;7.25;;;4.97;;
16179;SDS011;8196;49.428;10.906;2023-06-14T01:30:59;5.18;;;4.40;;
16179;SDS011;8196;49.428;10.906;2023-06-14T01:33:30;5.37;;;4.63;;
16179;SDS011;8196;49.428;10.906;2023-06-14T01:35:59;5.40;;;4.65;;
16179;SDS011;8196;49.428;10.906;2023-06-14T01:38:26;5.72;;;4.72;;
16179;SDS011;8196;49.428;10.906;2023-06-14T01:40:55;6.82;;;4.80;;
16179;SDS011;8196;49.428;10.906;2023-06-14T01:43:23;8.80;;;5.25;;
16179;SDS011;8196;49.428;10.906;2023-06-14T01:45:50;5.82;;;5.13;;
16179;SDS011;8196;49.428;10.906;2023-06-14T01:48:19;7.10;;;4.72;;
16179;SDS011;8196;49.428;10.906;2023-06-14T01:50:47;6.97;;;4.97;;
16179;SDS011;8196;49.428;10.906;2023-06-14T01:53:15;8.07;;;5.45;;
16179;SDS011;8196;49.428;10.906;2023-06-14T01:55:42;8.98;;;5.43;;
16179;SDS011;8196;49.428;10.906;2023-06-14T01:58:15;7.13;;;5.10;;
16179;SDS011;8196;49.428;10.906;2023-06-14T02:00:43;6.25;;;4.88;;
16179;SDS011;8196;49.428;10.906;2023-06-14T02:03:10;7.13;;;5.68;;
16179;SDS011;8196;49.428;10.906;2023-06-14T02:05:37;6.05;;;5.45;;
16179;SDS011;8196;49.428;10.906;2023-06-14T02:08:06;7.63;;;5.07;;
16179;SDS011;8196;49.428;10.906;2023-06-14T02:10:33;7.53;;;5.90;;
16179;SDS011;8196;49.428;10.906;2023-06-14T02:13:02;6.85;;;5.13;;
16179;SDS011;8196;49.428;10.906;2023-06-14T02:15:29;6.70;;;5.43;;
16179;SDS011;8196;49.428;10.906;2023-06-14T02:18:01;6.90;;;5.22;;
16179;SDS011;8196;49.428;10.906;2023-06-14T02:20:28;7.75;;;5.07;;
16179;SDS011;8196;49.428;10.906;2023-06-14T02:22:56;6.88;;;5.45;;
16179;SDS011;8196;49.428;10.906;2023-06-14T02:25:23;6.85;;;6.15;;
16179;SDS011;8196;49.428;10.906;2023-06-14T02:27:50;8.43;;;5.43;;
16179;SDS011;8196;49.428;10.906;2023-06-14T02:30:17;9.40;;;5.88;;
16179;SDS011;8196;49.428;10.906;2023-06-14T02:32:44;6.20;;;5.30;;
16179;SDS011;8196;49.428;10.906;2023-06-14T02:35:11;6.05;;;5.05;;
16179;SDS011;8196;49.428;10.906;2023-06-14T02:37:37;6.65;;;4.47;;
16179;SDS011;8196;49.428;10.906;2023-06-14T02:40:05;7.63;;;5.22;;
16179;SDS011;8196;49.428;10.906;2023-06-14T02:42:32;5.53;;;4.88;;
16179;SDS011;8196;49.428;10.906;2023-06-14T02:44:59;6.40;;;5.25;;
16179;SDS011;8196;49.428;10.906;2023-06-14T02:47:26;5.68;;;5.05;;
16179;SDS011;8196;49.428;10.906;2023-06-14T02:49:53;7.37;;;5.17;;
16179;SDS011;8196;49.428;10.906;2023-06-14T02:52:20;8.65;;;5.55;;
16179;SDS011;8196;49.428;10.906;2023-06-14T02:54:48;5.93;;;5.00;;
16179;SDS011;8196;49.428;10.906;2023-06-14T02:57:15;5.20;;;4.63;;
16179;SDS011;8196;49.428;10.906;2023-06-14T02:59:42;8.18;;;5.05;;
16179;SDS011;8196;49.428;10.906;2023-06-14T03:02:08;7.33;;;5.10;;
16179;SDS011;8196;49.428;10.906;2023-06-14T03:04:35;7.55;;;4.95;;
16179;SDS011;8196;49.428;10.906;2023-06-14T03:07:03;6.95;;;5.15;;
16179;SDS011;8196;49.428;10.906;2023-06-14T03:09:35;6.03;;;5.43;;
16179;SDS011;8196;49.428;10.906;2023-06-14T03:12:03;8.95;;;5.30;;
16179;SDS011;8196;49.428;10.906;2023-06-14T03:14:32;5.93;;;4.97;;
16179;SDS011;8196;49.428;10.906;2023-06-14T03:16:59;5.70;;;4.88;;
16179;SDS011;8196;49.428;10.906;2023-06-14T03:19:26;5.35;;;4.85;;
16179;SDS011;8196;49.428;10.906;2023-06-14T03:21:53;6.35;;;4.68;;
16179;SDS011;8196;49.428;10.906;2023-06-14T03:24:24;6.93;;;5.05;;
16179;SDS011;8196;49.428;10.906;2023-06-14T03:26:54;6.22;;;5.50;;
16179;SDS011;8196;49.428;10.906;2023-06-14T03:29:23;6.57;;;5.00;;
16179;SDS011;8196;49.428;10.906;2023-06-14T03:31:57;5.47;;;4.75;;
16179;SDS011;8196;49.428;10.906;2023-06-14T03:34:26;7.27;;;5.23;;
16179;SDS011;8196;49.428;10.906;2023-06-14T03:36:53;8.33;;;5.17;;
16179;SDS011;8196;49.428;10.906;2023-06-14T03:39:20;6.10;;;5.25;;
16179;SDS011;8196;49.428;10.906;2023-06-14T03:41:47;6.82;;;5.38;;
16179;SDS011;8196;49.428;10.906;2023-06-14T03:44:15;5.82;;;5.22;;
16179;SDS011;8196;49.428;10.906;2023-06-14T03:46:44;7.80;;;5.55;;
16179;SDS011;8196;49.428;10.906;2023-06-14T03:49:12;5.87;;;5.23;;
16179;SDS011;8196;49.428;10.906;2023-06-14T03:51:39;8.00;;;5.00;;
16179;SDS011;8196;49.428;10.906;2023-06-14T03:54:06;6.53;;;5.30;;
16179;SDS011;8196;49.428;10.906;2023-06-14T03:56:36;6.72;;;5.75;;
16179;SDS011;8196;49.428;10.906;2023-06-14T03:59:03;6.13;;;5.45;;
16179;SDS011;8196;49.428;10.906;2023-06-14T04:01:30;7.30;;;5.20;;
16179;SDS011;8196;49.428;10.906;2023-06-14T04:03:57;5.93;;;5.10;;
16179;SDS011;8196;49.428;10.906;2023-06-14T04:06:24;8.20;;;5.60;;
16179;SDS011;8196;49.428;10.906;2023-06-14T04:08:58;6.88;;;5.63;;
16179;SDS011;8196;49.428;10.906;2023-06-14T04:11:30;6.45;;;5.38;;
16179;SDS011;8196;49.428;10.906;2023-06-14T04:13:57;6.13;;;5.30;;
16179;SDS011;8196;49.428;10.906;2023-06-14T04:16:24;5.85;;;5.07;;
16179;SDS011;8196;49.428;10.906;2023-06-14T04:18:51;8.18;;;5.78;;
16179;SDS011;8196;49.428;10.906;2023-06-14T04:21:20;7.20;;;5.60;;
16179;SDS011;8196;49.428;10.906;2023-06-14T04:23:49;6.20;;;5.57;;
16179;SDS011;8196;49.428;10.906;2023-06-14T04:26:19;6.50;;;5.30;;
16179;SDS011;8196;49.428;10.906;2023-06-14T04:28:48;5.90;;;5.30;;
16179;SDS011;8196;49.428;10.906;2023-06-14T04:31:17;5.78;;;5.28;;
16179;SDS011;8196;49.428;10.906;2023-06-14T04:33:44;6.10;;;4.90;;
16179;SDS011;8196;49.428;10.906;2023-06-14T04:36:13;6.80;;;5.30;;
16179;SDS011;8196;49.428;10.906;2023-06-14T04:38:40;6.63;;;5.05;;
16179;SDS011;8196;49.428;10.906;2023-06-14T04:41:07;5.53;;;4.93;;
16179;SDS011;8196;49.428;10.906;2023-06-14T04:43:37;5.97;;;4.90;;
16179;SDS011;8196;49.428;10.906;2023-06-14T04:46:05;6.22;;;5.15;;
16179;SDS011;8196;49.428;10.906;2023-06-14T04:48:37;5.57;;;4.70;;
16179;SDS011;8196;49.428;10.906;2023-06-14T04:51:07;5.32;;;4.82;;
16179;SDS011;8196;49.428;10.906;2023-06-14T04:53:35;5.70;;;5.00;;
16179;SDS011;8196;49.428;10.906;2023-06-14T04:56:02;7.03;;;4.75;;
16179;SDS011;8196;49.428;10.906;2023-06-14T04:58:30;5.38;;;4.55;;
16179;SDS011;8196;49.428;10.906;2023-06-14T05:00:57;5.00;;;4.45;;
16179;SDS011;8196;49.428;10.906;2023-06-14T05:03:25;5.10;;;4.50;;
16179;SDS011;8196;49.428;10.906;2023-06-14T05:05:54;5.00;;;4.50;;
16179;SDS011;8196;49.428;10.906;2023-06-14T05:08:21;4.95;;;4.45;;
16179;SDS011;8196;49.428;10.906;2023-06-14T05:10:50;7.13;;;4.50;;
16179;SDS011;8196;49.428;10.906;2023-06-14T05:13:17;4.60;;;4.20;;
16179;SDS011;8196;49.428;10.906;2023-06-14T05:15:44;6.07;;;4.25;;
16179;SDS011;8196;49.428;10.906;2023-06-14T05:18:11;4.93;;;4.07;;
16179;SDS011;8196;49.428;10.906;2023-06-14T05:20:39;5.15;;;4.15;;
16179;SDS011;8196;49.428;10.906;2023-06-14T05:23:08;4.85;;;4.30;;
16179;SDS011;8196;49.428;10.906;2023-06-14T05:25:42;6.73;;;4.50;;
16179;SDS011;8196;49.428;10.906;2023-06-14T05:28:10;5.97;;;4.22;;
16179;SDS011;8196;49.428;10.906;2023-06-14T05:30:37;5.78;;;4.40;;
16179;SDS011;8196;49.428;10.906;2023-06-14T05:33:06;5.78;;;4.90;;
16179;SDS011;8196;49.428;10.906;2023-06-14T05:35:33;6.03;;;4.33;;
16179;SDS011;8196;49.428;10.906;2023-06-14T05:38:00;6.90;;;4.70;;
16179;SDS011;8196;49.428;10.906;2023-06-14T05:40:27;5.00;;;4.03;;
16179;SDS011;8196;49.428;10.906;2023-06-14T05:42:54;6.23;;;4.47;;
16179;SDS011;8196;49.428;10.906;2023-06-14T05:45:21;4.72;;;3.47;;
16179;SDS011;8196;49.428;10.906;2023-06-14T05:47:48;4.43;;;3.83;;
16179;SDS011;8196;49.428;10.906;2023-06-14T05:50:14;5.30;;;4.07;;
16179;SDS011;8196;49.428;10.906;2023-06-14T05:52:41;4.13;;;3.72;;
16179;SDS011;8196;49.428;10.906;2023-06-14T05:55:08;6.57;;;3.88;;
16179;SDS011;8196;49.428;10.906;2023-06-14T05:57:38;4.50;;;3.80;;
16179;SDS011;8196;49.428;10.906;2023-06-14T06:00:06;3.73;;;3.20;;
16179;SDS011;8196;49.428;10.906;2023-06-14T06:02:37;4.45;;;3.60;;
16179;SDS011;8196;49.428;10.906;2023-06-14T06:05:04;5.43;;;3.70;;
16179;SDS011;8196;49.428;10.906;2023-06-14T06:07:32;5.97;;;4.28;;
16179;SDS011;8196;49.428;10.906;2023-06-14T06:10:02;4.38;;;3.50;;
16179;SDS011;8196;49.428;10.906;2023-06-14T06:12:30;4.82;;;3.53;;
16179;SDS011;8196;49.428;10.906;2023-06-14T06:14:56;3.50;;;3.17;;
16179;SDS011;8196;49.428;10.906;2023-06-14T06:17:24;4.45;;;3.70;;
16179;SDS011;8196;49.428;10.906;2023-06-14T06:19:56;4.85;;;3.47;;
16179;SDS011;8196;49.428;10.906;2023-06-14T06:22:23;6.53;;;3.50;;
16179;SDS011;8196;49.428;10.906;2023-06-14T06:24:50;7.20;;;3.67;;
16179;SDS011;8196;49.428;10.906;2023-06-14T06:27:17;3.83;;;3.43;;
16179;SDS011;8196;49.428;10.906;2023-06-14T06:29:45;5.03;;;3.63;;
16179;SDS011;8196;49.428;10.906;2023-06-14T06:32:11;4.45;;;3.75;;
16179;SDS011;8196;49.428;10.906;2023-06-14T06:34:38;4.68;;;3.17;;
16179;SDS011;8196;49.428;10.906;2023-06-14T06:37:05;6.40;;;3.75;;
16179;SDS011;8196;49.428;10.906;2023-06-14T06:39:33;3.60;;;3.30;;
16179;SDS011;8196;49.428;10.906;2023-06-14T06:42:01;4.13;;;3.38;;
16179;SDS011;8196;49.428;10.906;2023-06-14T06:44:27;4.15;;;3.33;;
16179;SDS011;8196;49.428;10.906;2023-06-14T06:46:55;4.63;;;3.40;;
16179;SDS011;8196;49.428;10.906;2023-06-14T06:49:21;4.82;;;3.30;;
16179;SDS011;8196;49.428;10.906;2023-06-14T06:52:04;4.07;;;3.38;;
16179;SDS011;8196;49.428;10.906;2023-06-14T06:54:32;5.50;;;3.65;;
16179;SDS011;8196;49.428;10.906;2023-06-14T06:57:00;4.45;;;3.40;;
16179;SDS011;8196;49.428;10.906;2023-06-14T06:59:27;3.42;;;3.13;;
16179;SDS011;8196;49.428;10.906;2023-06-14T07:01:54;4.70;;;3.30;;
16179;SDS011;8196;49.428;10.906;2023-06-14T07:04:22;4.50;;;3.42;;
16179;SDS011;8196;49.428;10.906;2023-06-14T07:06:49;4.38;;;3.65;;
16179;SDS011;8196;49.428;10.906;2023-06-14T07:09:16;4.88;;;3.28;;
16179;SDS011;8196;49.428;10.906;2023-06-14T07:11:43;3.97;;;3.50;;
16179;SDS011;8196;49.428;10.906;2023-06-14T07:14:10;3.40;;;3.08;;
16179;SDS011;8196;49.428;10.906;2023-06-14T07:16:37;4.07;;;3.50;;
16179;SDS011;8196;49.428;10.906;2023-06-14T07:19:04;4.35;;;3.40;;
16179;SDS011;8196;49.428;10.906;2023-06-14T07:21:32;3.88;;;3.28;;
16179;SDS011;8196;49.428;10.906;2023-06-14T07:23:58;3.92;;;3.50;;
16179;SDS011;8196;49.428;10.906;2023-06-14T07:26:25;4.03;;;3.30;;
16179;SDS011;8196;49.428;10.906;2023-06-14T07:28:52;5.85;;;3.40;;
16179;SDS011;8196;49.428;10.906;2023-06-14T07:31:19;5.10;;;3.40;;
16179;SDS011;8196;49.428;10.906;2023-06-14T07:33:46;4.40;;;3.20;;
16179;SDS011;8196;49.428;10.906;2023-06-14T07:36:13;4.50;;;3.33;;
16179;SDS011;8196;49.428;10.906;2023-06-14T07:38:40;3.78;;;3.28;;
16179;SDS011;8196;49.428;10.906;2023-06-14T07:41:07;4.40;;;3.08;;
16179;SDS011;8196;49.428;10.906;2023-06-14T07:43:34;3.47;;;2.90;;
16179;SDS011;8196;49.428;10.906;2023-06-14T07:46:01;5.55;;;3.30;;
16179;SDS011;8196;49.428;10.906;2023-06-14T07:48:33;4.60;;;3.20;;
16179;SDS011;8196;49.428;10.906;2023-06-14T07:51:00;6.35;;;3.20;;
16179;SDS011;8196;49.428;10.906;2023-06-14T07:53:27;4.80;;;3.40;;
16179;SDS011;8196;49.428;10.906;2023-06-14T07:55:54;5.80;;;3.35;;
16179;SDS011;8196;49.428;10.906;2023-06-14T07:58:21;3.75;;;3.10;;
16179;SDS011;8196;49.428;10.906;2023-06-14T08:00:48;4.85;;;3.00;;
16179;SDS011;8196;49.428;10.906;2023-06-14T08:03:15;3.83;;;3.20;;
16179;SDS011;8196;49.428;10.906;2023-06-14T08:05:42;5.88;;;3.10;;
16179;SDS011;8196;49.428;10.906;2023-06-14T08:08:09;3.92;;;3.20;;
16179;SDS011;8196;49.428;10.906;2023-06-14T08:10:36;3.80;;;3.13;;
16179;SDS011;8196;49.428;10.906;2023-06-14T08:13:03;5.47;;;3.13;;
16179;SDS011;8196;49.428;10.906;2023-06-14T08:15:31;6.15;;;3.30;;
16179;SDS011;8196;49.428;10.906;2023-06-14T08:17:58;3.45;;;2.92;;
16179;SDS011;8196;49.428;10.906;2023-06-14T08:20:26;3.33;;;2.90;;
16179;SDS011;8196;49.428;10.906;2023-06-14T08:22:53;5.22;;;2.85;;
16179;SDS011;8196;49.428;10.906;2023-06-14T08:25:23;3.95;;;3.10;;
16179;SDS011;8196;49.428;10.906;2023-06-14T08:27:50;3.15;;;2.85;;
16179;SDS011;8196;49.428;10.906;2023-06-14T08:30:17;4.63;;;2.90;;
16179;SDS011;8196;49.428;10.906;2023-06-14T08:32:44;4.07;;;2.97;;
16179;SDS011;8196;49.428;10.906;2023-06-14T08:35:13;3.87;;;3.00;;
16179;SDS011;8196;49.428;10.906;2023-06-14T08:37:40;3.53;;;3.10;;
16179;SDS011;8196;49.428;10.906;2023-06-14T08:40:18;3.92;;;3.10;;
16179;SDS011;8196;49.428;10.906;2023-06-14T08:42:47;4.90;;;2.97;;
16179;SDS011;8196;49.428;10.906;2023-06-14T08:45:16;3.10;;;2.80;;
16179;SDS011;8196;49.428;10.906;2023-06-14T08:47:43;3.38;;;2.75;;
16179;SDS011;8196;49.428;10.906;2023-06-14T08:50:11;4.90;;;3.00;;
16179;SDS011;8196;49.428;10.906;2023-06-14T08:52:54;3.50;;;3.08;;
16179;SDS011;8196;49.428;10.906;2023-06-14T08:55:23;6.07;;;3.15;;
16179;SDS011;8196;49.428;10.906;2023-06-14T08:57:52;3.50;;;2.80;;
16179;SDS011;8196;49.428;10.906;2023-06-14T09:00:20;4.35;;;2.78;;
16179;SDS011;8196;49.428;10.906;2023-06-14T09:02:48;4.07;;;2.90;;
16179;SDS011;8196;49.428;10.906;2023-06-14T09:05:16;4.30;;;2.78;;
16179;SDS011;8196;49.428;10.906;2023-06-14T09:07:44;3.25;;;2.92;;
16179;SDS011;8196;49.428;10.906;2023-06-14T09:10:12;4.97;;;3.15;;
16179;SDS011;8196;49.428;10.906;2023-06-14T09:12:41;5.70;;;3.00;;
16179;SDS011;8196;49.428;10.906;2023-06-14T09:15:09;3.80;;;3.00;;
16179;SDS011;8196;49.428;10.906;2023-06-14T09:17:36;5.05;;;3.00;;
16179;SDS011;8196;49.428;10.906;2023-06-14T09:20:04;4.88;;;3.30;;
16179;SDS011;8196;49.428;10.906;2023-06-14T09:22:35;5.20;;;3.28;;
16179;SDS011;8196;49.428;10.906;2023-06-14T09:25:03;5.15;;;3.55;;
16179;SDS011;8196;49.428;10.906;2023-06-14T09:27:31;5.10;;;3.05;;
16179;SDS011;8196;49.428;10.906;2023-06-14T09:30:03;4.95;;;3.17;;
16179;SDS011;8196;49.428;10.906;2023-06-14T09:32:30;5.68;;;3.00;;
16179;SDS011;8196;49.428;10.906;2023-06-14T09:34:57;5.15;;;2.95;;
16179;SDS011;8196;49.428;10.906;2023-06-14T09:37:28;3.53;;;3.00;;
16179;SDS011;8196;49.428;10.906;2023-06-14T09:39:56;4.50;;;2.83;;
16179;SDS011;8196;49.428;10.906;2023-06-14T09:42:23;5.80;;;3.03;;
16179;SDS011;8196;49.428;10.906;2023-06-14T09:44:54;3.55;;;3.22;;
16179;SDS011;8196;49.428;10.906;2023-06-14T09:47:22;4.90;;;3.20;;
16179;SDS011;8196;49.428;10.906;2023-06-14T09:49:50;4.13;;;2.95;;
16179;SDS011;8196;49.428;10.906;2023-06-14T09:52:18;3.75;;;3.08;;
16179;SDS011;8196;49.428;10.906;2023-06-14T09:54:46;5.00;;;3.20;;
16179;SDS011;8196;49.428;10.906;2023-06-14T09:57:14;3.92;;;2.90;;
16179;SDS011;8196;49.428;10.906;2023-06-14T09:59:43;3.50;;;3.20;;
16179;SDS011;8196;49.428;10.906;2023-06-14T10:05:03;3.17;;;2.88;;
16179;SDS011;8196;49.428;10.906;2023-06-14T10:07:34;3.90;;;3.03;;
16179;SDS011;8196;49.428;10.906;2023-06-14T10:10:06;5.03;;;3.47;;
16179;SDS011;8196;49.428;10.906;2023-06-14T10:12:34;4.13;;;3.10;;
16179;SDS011;8196;49.428;10.906;2023-06-14T10:15:00;4.55;;;3.00;;
16179;SDS011;8196;49.428;10.906;2023-06-14T10:17:33;5.70;;;3.10;;
16179;SDS011;8196;49.428;10.906;2023-06-14T10:20:48;3.55;;;2.90;;
16179;SDS011;8196;49.428;10.906;2023-06-14T10:23:00;4.25;;;3.10;;
16179;SDS011;8196;49.428;10.906;2023-06-14T10:25:33;3.42;;;3.10;;
16179;SDS011;8196;49.428;10.906;2023-06-14T10:28:02;3.63;;;3.07;;
16179;SDS011;8196;49.428;10.906;2023-06-14T10:30:30;3.72;;;3.00;;
16179;SDS011;8196;49.428;10.906;2023-06-14T10:33:05;3.40;;;3.08;;
16179;SDS011;8196;49.428;10.906;2023-06-14T10:35:33;4.32;;;3.05;;
16179;SDS011;8196;49.428;10.906;2023-06-14T10:38:06;3.38;;;2.88;;
16179;SDS011;8196;49.428;10.906;2023-06-14T10:40:34;4.30;;;3.53;;
16179;SDS011;8196;49.428;10.906;2023-06-14T10:43:18;3.30;;;3.00;;
16179;SDS011;8196;49.428;10.906;2023-06-14T10:46:24;3.50;;;3.20;;
16179;SDS011;8196;49.428;10.906;2023-06-14T10:48:56;5.32;;;3.15;;
16179;SDS011;8196;49.428;10.906;2023-06-14T10:51:23;4.07;;;3.25;;
16179;SDS011;8196;49.428;10.906;2023-06-14T10:53:50;3.97;;;2.92;;
16179;SDS011;8196;49.428;10.906;2023-06-14T10:56:33;9.02;;;3.97;;
16179;SDS011;8196;49.428;10.906;2023-06-14T10:59:00;3.25;;;2.95;;
16179;SDS011;8196;49.428;10.906;2023-06-14T11:01:36;3.47;;;3.08;;
16179;SDS011;8196;49.428;10.906;2023-06-14T11:04:07;4.93;;;2.97;;
16179;SDS011;8196;49.428;10.906;2023-06-14T11:06:45;4.32;;;2.95;;
16179;SDS011;8196;49.428;10.906;2023-06-14T11:12:05;4.57;;;3.25;;
16179;SDS011;8196;49.428;10.906;2023-06-14T11:14:36;3.58;;;2.72;;
16179;SDS011;8196;49.428;10.906;2023-06-14T11:17:04;4.72;;;3.10;;
16179;SDS011;8196;49.428;10.906;2023-06-14T11:19:31;4.10;;;3.13;;
16179;SDS011;8196;49.428;10.906;2023-06-14T11:21:58;3.63;;;2.90;;
16179;SDS011;8196;49.428;10.906;2023-06-14T11:24:25;3.65;;;2.60;;
16179;SDS011;8196;49.428;10.906;2023-06-14T11:26:52;5.80;;;3.00;;
16179;SDS011;8196;49.428;10.906;2023-06-14T11:31:46;5.15;;;3.00;;
16179;SDS011;8196;49.428;10.906;2023-06-14T11:34:13;4.25;;;2.92;;
16179;SDS011;8196;49.428;10.906;2023-06-14T11:36:40;3.42;;;2.88;;
16179;SDS011;8196;49.428;10.906;2023-06-14T11:39:08;3.43;;;3.00;;
16179;SDS011;8196;49.428;10.906;2023-06-14T11:41:38;3.47;;;3.10;;
16179;SDS011;8196;49.428;10.906;2023-06-14T11:44:06;4.93;;;3.00;;
16179;SDS011;8196;49.428;10.906;2023-06-14T11:46:33;3.65;;;3.00;;
16179;SDS011;8196;49.428;10.906;2023-06-14T11:49:01;3.20;;;2.90;;
16179;SDS011;8196;49.428;10.906;2023-06-14T11:51:33;3.95;;;3.08;;
16179;SDS011;8196;49.428;10.906;2023-06-14T11:54:01;4.20;;;3.22;;
16179;SDS011;8196;49.428;10.906;2023-06-14T11:56:29;4.03;;;2.97;;
16179;SDS011;8196;49.428;10.906;2023-06-14T11:58:58;3.20;;;2.80;;
16179;SDS011;8196;49.428;10.906;2023-06-14T12:01:25;3.63;;;3.00;;
16179;SDS011;8196;49.428;10.906;2023-06-14T12:03:53;4.90;;;3.20;;
16179;SDS011;8196;49.428;10.906;2023-06-14T12:06:29;4.33;;;2.80;;
16179;SDS011;8196;49.428;10.906;2023-06-14T12:11:32;3.40;;;2.93;;
16179;SDS011;8196;49.428;10.906;2023-06-14T12:14:00;4.30;;;3.20;;
16179;SDS011;8196;49.428;10.906;2023-06-14T12:16:30;3.67;;;3.38;;
16179;SDS011;8196;49.428;10.906;2023-06-14T12:19:00;3.20;;;2.90;;
16179;SDS011;8196;49.428;10.906;2023-06-14T12:21:34;3.67;;;3.00;;
16179;SDS011;8196;49.428;10.906;2023-06-14T12:24:03;3.03;;;2.70;;
16179;SDS011;8196;49.428;10.906;2023-06-14T12:26:30;3.40;;;3.05;;
16179;SDS011;8196;49.428;10.906;2023-06-14T12:28:57;3.53;;;2.88;;
16179;SDS011;8196;49.428;10.906;2023-06-14T12:31:25;4.95;;;2.97;;
16179;SDS011;8196;49.428;10.906;2023-06-14T12:33:52;4.00;;;2.90;;
16179;SDS011;8196;49.428;10.906;2023-06-14T12:36:19;6.38;;;2.85;;
16179;SDS011;8196;49.428;10.906;2023-06-14T12:38:46;3.42;;;3.00;;
16179;SDS011;8196;49.428;10.906;2023-06-14T12:41:13;3.00;;;2.70;;
16179;SDS011;8196;49.428;10.906;2023-06-14T12:43:41;4.35;;;2.95;;
16179;SDS011;8196;49.428;10.906;2023-06-14T12:46:08;4.05;;;2.90;;
16179;SDS011;8196;49.428;10.906;2023-06-14T12:48:35;4.15;;;2.80;;
16179;SDS011;8196;49.428;10.906;2023-06-14T12:51:01;4.70;;;3.00;;
16179;SDS011;8196;49.428;10.906;2023-06-14T12:53:28;5.68;;;2.88;;
16179;SDS011;8196;49.428;10.906;2023-06-14T12:55:55;5.32;;;2.90;;
16179;SDS011;8196;49.428;10.906;2023-06-14T12:58:22;3.88;;;2.90;;
16179;SDS011;8196;49.428;10.906;2023-06-14T13:00:50;5.18;;;2.72;;
16179;SDS011;8196;49.428;10.906;2023-06-14T13:03:17;3.05;;;2.75;;
16179;SDS011;8196;49.428;10.906;2023-06-14T13:05:44;3.40;;;2.90;;
16179;SDS011;8196;49.428;10.906;2023-06-14T13:08:11;4.57;;;2.70;;
16179;SDS011;8196;49.428;10.906;2023-06-14T13:10:38;2.90;;;2.60;;
16179;SDS011;8196;49.428;10.906;2023-06-14T13:13:05;3.38;;;2.78;;
16179;SDS011;8196;49.428;10.906;2023-06-14T13:15:34;2.95;;;2.72;;
16179;SDS011;8196;49.428;10.906;2023-06-14T13:18:01;3.47;;;2.73;;
16179;SDS011;8196;49.428;10.906;2023-06-14T13:20:29;4.18;;;2.88;;
16179;SDS011;8196;49.428;10.906;2023-06-14T13:22:56;3.20;;;2.78;;
16179;SDS011;8196;49.428;10.906;2023-06-14T13:25:23;3.03;;;2.80;;
16179;SDS011;8196;49.428;10.906;2023-06-14T13:27:49;3.33;;;3.03;;
16179;SDS011;8196;49.428;10.906;2023-06-14T13:30:16;5.07;;;2.58;;
16179;SDS011;8196;49.428;10.906;2023-06-14T13:32:44;3.50;;;2.70;;
16179;SDS011;8196;49.428;10.906;2023-06-14T13:35:14;3.45;;;2.90;;
16179;SDS011;8196;49.428;10.906;2023-06-14T13:37:41;2.70;;;2.50;;
16179;SDS011;8196;49.428;10.906;2023-06-14T13:40:08;3.70;;;2.70;;
16179;SDS011;8196;49.428;10.906;2023-06-14T13:42:35;4.50;;;3.10;;
16179;SDS011;8196;49.428;10.906;2023-06-14T13:45:02;3.17;;;2.63;;
16179;SDS011;8196;49.428;10.906;2023-06-14T13:47:30;2.72;;;2.53;;
16179;SDS011;8196;49.428;10.906;2023-06-14T13:49:57;2.83;;;2.47;;
16179;SDS011;8196;49.428;10.906;2023-06-14T13:52:24;4.50;;;2.60;;
16179;SDS011;8196;49.428;10.906;2023-06-14T13:54:51;3.15;;;2.53;;
16179;SDS011;8196;49.428;10.906;2023-06-14T13:57:19;5.07;;;2.80;;
16179;SDS011;8196;49.428;10.906;2023-06-14T13:59:46;4.20;;;2.70;;
16179;SDS011;8196;49.428;10.906;2023-06-14T14:02:13;9.47;;;3.13;;
16179;SDS011;8196;49.428;10.906;2023-06-14T14:04:41;8.20;;;3.78;;
16179;SDS011;8196;49.428;10.906;2023-06-14T14:07:08;6.07;;;3.00;;
16179;SDS011;8196;49.428;10.906;2023-06-14T14:09:35;3.17;;;2.70;;
16179;SDS011;8196;49.428;10.906;2023-06-14T14:12:02;3.27;;;2.90;;
16179;SDS011;8196;49.428;10.906;2023-06-14T14:14:29;3.38;;;2.83;;
16179;SDS011;8196;49.428;10.906;2023-06-14T14:16:58;3.08;;;2.58;;
16179;SDS011;8196;49.428;10.906;2023-06-14T14:19:25;3.17;;;2.75;;
16179;SDS011;8196;49.428;10.906;2023-06-14T14:21:51;3.97;;;2.65;;
16179;SDS011;8196;49.428;10.906;2023-06-14T14:24:19;2.70;;;2.50;;
16179;SDS011;8196;49.428;10.906;2023-06-14T14:26:46;6.65;;;2.78;;
16179;SDS011;8196;49.428;10.906;2023-06-14T14:29:14;2.78;;;2.45;;
16179;SDS011;8196;49.428;10.906;2023-06-14T14:31:42;3.05;;;2.60;;
16179;SDS011;8196;49.428;10.906;2023-06-14T14:34:09;4.60;;;2.80;;
16179;SDS011;8196;49.428;10.906;2023-06-14T14:36:35;2.87;;;2.40;;
16179;SDS011;8196;49.428;10.906;2023-06-14T14:39:04;3.08;;;2.58;;
16179;SDS011;8196;49.428;10.906;2023-06-14T14:41:31;4.70;;;2.70;;
16179;SDS011;8196;49.428;10.906;2023-06-14T14:43:57;3.47;;;2.58;;
16179;SDS011;8196;49.428;10.906;2023-06-14T14:46:27;2.70;;;2.50;;
16179;SDS011;8196;49.428;10.906;2023-06-14T14:48:54;6.55;;;2.60;;
16179;SDS011;8196;49.428;10.906;2023-06-14T14:51:21;2.90;;;2.53;;
16179;SDS011;8196;49.428;10.906;2023-06-14T14:53:48;3.20;;;2.57;;
16179;SDS011;8196;49.428;10.906;2023-06-14T14:56:14;2.97;;;2.67;;
16179;SDS011;8196;49.428;10.906;2023-06-14T14:58:41;3.60;;;2.50;;
16179;SDS011;8196;49.428;10.906;2023-06-14T15:01:08;3.58;;;2.50;;
16179;SDS011;8196;49.428;10.906;2023-06-14T15:03:35;3.10;;;2.80;;
16179;SDS011;8196;49.428;10.906;2023-06-14T15:06:22;4.10;;;2.90;;
16179;SDS011;8196;49.428;10.906;2023-06-14T15:08:49;2.85;;;2.30;;